createdAt,value
2022-07-26T00:01:19.044Z,99157.75
2022-07-26T00:03:48.137Z,99164.25
2022-07-26T00:06:16.380Z,99170.75
2022-07-26T00:08:49.528Z,99167.50
2022-07-26T00:11:17.895Z,99171.94
2022-07-26T00:13:46.635Z,99162.41
2022-07-26T00:16:14.929Z,99175.91
2022-07-26T00:18:43.609Z,99165.50
2022-07-26T00:21:12.034Z,99167.16
2022-07-26T00:23:40.467Z,99163.81
2022-07-26T00:26:10.298Z,99169.22
2022-07-26T00:28:38.804Z,99169.97
2022-07-26T00:31:07.011Z,99168.06
2022-07-26T00:33:35.597Z,99161.88
2022-07-26T00:36:03.674Z,99166.78
2022-07-26T00:38:31.881Z,99175.81
2022-07-26T00:41:00.092Z,99172.28
2022-07-26T00:43:29.634Z,99171.41
2022-07-26T00:45:57.714Z,99172.44
2022-07-26T00:48:26.219Z,99174.78
2022-07-26T00:50:55.761Z,99174.00
2022-07-26T00:53:24.889Z,99168.72
2022-07-26T00:55:53.957Z,99179.13
2022-07-26T00:58:22.347Z,99166.31
2022-07-26T01:00:51.974Z,99167.63
2022-07-26T01:03:20.213Z,99169.63
2022-07-26T01:05:50.851Z,99166.03
2022-07-26T01:08:19.004Z,99162.25
2022-07-26T01:10:47.830Z,99170.81
2022-07-26T01:13:23.561Z,99172.00
2022-07-26T01:15:53.161Z,99160.59
2022-07-26T01:18:21.283Z,99158.19
2022-07-26T01:20:50.927Z,99163.94
2022-07-26T01:23:20.971Z,99161.03
2022-07-26T01:25:49.780Z,99159.59
2022-07-26T01:28:20.561Z,99152.88
2022-07-26T01:30:50.318Z,99157.41
2022-07-26T01:33:18.514Z,99158.53
2022-07-26T01:35:46.986Z,99160.75
2022-07-26T01:38:15.173Z,99163.03
2022-07-26T01:40:44.695Z,99158.19
2022-07-26T01:43:12.888Z,99155.22
2022-07-26T01:45:41.463Z,99159.28
2022-07-26T01:48:09.807Z,99156.97
2022-07-26T01:50:38.481Z,99160.19
2022-07-26T01:53:06.638Z,99149.53
2022-07-26T01:55:34.785Z,99150.34
2022-07-26T01:58:05.222Z,99152.75
2022-07-26T02:00:34.020Z,99148.88
2022-07-26T02:03:02.318Z,99136.16
2022-07-26T02:05:30.885Z,99148.22
2022-07-26T02:07:59.091Z,99146.34
2022-07-26T02:10:50.420Z,99154.88
2022-07-26T02:13:19.947Z,99148.13
2022-07-26T02:15:48.823Z,99138.97
2022-07-26T02:18:17.046Z,99153.53
2022-07-26T02:20:45.695Z,99136.31
2022-07-26T02:23:13.967Z,99144.59
2022-07-26T02:25:42.025Z,99134.56
2022-07-26T02:28:10.278Z,99144.72
2022-07-26T02:30:39.824Z,99140.84
2022-07-26T02:33:08.428Z,99140.28
2022-07-26T02:35:36.800Z,99143.72
2022-07-26T02:38:06.402Z,99142.38
2022-07-26T02:40:35.215Z,99147.34
2022-07-26T02:43:03.473Z,99147.00
2022-07-26T02:45:31.591Z,99145.56
2022-07-26T02:48:01.624Z,99146.16
2022-07-26T02:50:30.706Z,99153.00
2022-07-26T02:52:58.966Z,99146.78
2022-07-26T02:55:28.372Z,99153.34
2022-07-26T02:57:56.595Z,99152.66
2022-07-26T03:00:26.196Z,99156.09
2022-07-26T03:02:54.678Z,99153.00
2022-07-26T03:05:24.771Z,99154.34
2022-07-26T03:07:53.025Z,99153.00
2022-07-26T03:10:21.311Z,99151.13
2022-07-26T03:12:49.416Z,99151.66
2022-07-26T03:15:17.647Z,99166.34
2022-07-26T03:17:45.744Z,99166.03
2022-07-26T03:20:14.525Z,99166.53
2022-07-26T03:22:44.629Z,99168.22
2022-07-26T03:25:13.029Z,99163.44
2022-07-26T03:27:41.181Z,99165.09
2022-07-26T03:30:10.490Z,99175.81
2022-07-26T03:32:38.722Z,99172.50
2022-07-26T03:35:08.539Z,99176.75
2022-07-26T03:37:44.928Z,99182.28
2022-07-26T03:40:16.129Z,99183.28
2022-07-26T03:42:46.227Z,99181.28
2022-07-26T03:45:14.738Z,99185.38
2022-07-26T03:47:42.934Z,99188.59
2022-07-26T03:50:14.111Z,99190.34
2022-07-26T03:52:42.520Z,99191.78
2022-07-26T03:55:29.078Z,99191.56
2022-07-26T03:57:59.072Z,99188.84
2022-07-26T04:00:27.358Z,99188.53
2022-07-26T04:02:55.522Z,99188.94
2022-07-26T04:05:26.045Z,99187.13
2022-07-26T04:07:54.721Z,99181.34
2022-07-26T04:10:24.842Z,99189.75
2022-07-26T04:12:55.387Z,99182.63
2022-07-26T04:15:24.896Z,99178.66
2022-07-26T04:17:53.025Z,99178.59
2022-07-26T04:20:21.128Z,99178.97
2022-07-26T04:22:49.248Z,99178.72
2022-07-26T04:25:17.438Z,99171.22
2022-07-26T04:27:45.552Z,99164.13
2022-07-26T04:30:15.684Z,99171.13
2022-07-26T04:32:46.677Z,99176.25
2022-07-26T04:35:16.219Z,99174.75
2022-07-26T04:37:45.235Z,99175.88
2022-07-26T04:40:21.258Z,99179.13
2022-07-26T04:42:51.513Z,99179.59
2022-07-26T04:45:19.749Z,99182.41
2022-07-26T04:47:51.533Z,99174.66
2022-07-26T04:50:20.506Z,99186.06
2022-07-26T04:52:49.996Z,99181.31
2022-07-26T04:55:18.819Z,99180.50
2022-07-26T04:57:48.399Z,99177.44
2022-07-26T05:00:22.950Z,99182.97
2022-07-26T05:02:56.534Z,99180.16
2022-07-26T05:05:25.516Z,99174.88
2022-07-26T05:07:55.622Z,99171.81
2022-07-26T05:10:29.195Z,99179.38
2022-07-26T05:12:57.296Z,99175.63
2022-07-26T05:15:25.994Z,99181.00
2022-07-26T05:18:07.084Z,99177.59
2022-07-26T05:20:36.830Z,99170.78
2022-07-26T05:23:05.191Z,99168.22
2022-07-26T05:25:33.729Z,99167.47
2022-07-26T05:28:01.891Z,99165.00
2022-07-26T05:30:30.475Z,99165.97
2022-07-26T05:32:58.642Z,99170.72
2022-07-26T05:35:28.517Z,99175.22
2022-07-26T05:37:56.644Z,99165.69
2022-07-26T05:40:24.960Z,99173.00
2022-07-26T05:42:53.165Z,99174.41
2022-07-26T05:45:21.882Z,99175.91
2022-07-26T05:47:51.421Z,99167.13
2022-07-26T05:50:20.610Z,99171.75
2022-07-26T05:52:50.933Z,99177.28
2022-07-26T05:55:19.369Z,99174.38
2022-07-26T05:57:49.472Z,99169.28
2022-07-26T06:00:18.553Z,99170.91
2022-07-26T06:02:47.964Z,99176.19
2022-07-26T06:05:16.413Z,99173.69
2022-07-26T06:07:46.105Z,99172.34
2022-07-26T06:10:16.093Z,99175.81
2022-07-26T06:12:44.181Z,99165.19
2022-07-26T06:15:15.570Z,99155.38
2022-07-26T06:17:44.411Z,99159.97
2022-07-26T06:20:13.151Z,99159.50
2022-07-26T06:22:41.362Z,99164.50
2022-07-26T06:25:10.045Z,99158.91
2022-07-26T06:27:39.669Z,99155.25
2022-07-26T06:30:10.454Z,99146.47
2022-07-26T06:32:38.640Z,99148.16
2022-07-26T06:35:07.576Z,99143.25
2022-07-26T06:37:38.096Z,99142.19
2022-07-26T06:40:08.129Z,99148.41
2022-07-26T06:42:36.894Z,99144.09
2022-07-26T06:45:08.070Z,99134.41
2022-07-26T06:47:36.554Z,99142.19
2022-07-26T06:50:06.376Z,99142.66
2022-07-26T06:52:35.044Z,99136.50
2022-07-26T06:55:03.899Z,99132.00
2022-07-26T06:57:32.503Z,99131.22
2022-07-26T07:00:00.849Z,99132.19
2022-07-26T07:02:30.544Z,99128.53
2022-07-26T07:04:58.928Z,99128.94
2022-07-26T07:07:27.429Z,99123.44
2022-07-26T07:09:57.175Z,99120.16
2022-07-26T07:12:27.287Z,99135.84
2022-07-26T07:14:55.486Z,99136.00
2022-07-26T07:17:23.786Z,99136.53
2022-07-26T07:19:53.649Z,99129.03
2022-07-26T07:22:22.478Z,99127.56
2022-07-26T07:24:50.632Z,99130.44
2022-07-26T07:27:18.885Z,99137.19
2022-07-26T07:29:49.140Z,99123.53
2022-07-26T07:32:18.881Z,99127.59
2022-07-26T07:34:50.054Z,99126.78
2022-07-26T07:37:20.778Z,99126.34
2022-07-26T07:39:50.276Z,99127.97
2022-07-26T07:42:19.261Z,99125.25
2022-07-26T07:44:48.538Z,99117.34
2022-07-26T07:47:16.843Z,99126.41
2022-07-26T07:49:45.160Z,99120.91
2022-07-26T07:52:13.284Z,99117.25
2022-07-26T07:54:42.893Z,99125.41
2022-07-26T07:57:11.956Z,99123.31
2022-07-26T07:59:42.993Z,99118.03
2022-07-26T08:02:12.898Z,99125.09
2022-07-26T08:04:41.145Z,99123.28
2022-07-26T08:07:09.368Z,99114.88
2022-07-26T08:09:37.565Z,99115.84
2022-07-26T08:12:12.971Z,99114.19
2022-07-26T08:14:41.631Z,99110.22
2022-07-26T08:17:09.779Z,99106.84
2022-07-26T08:19:41.886Z,99105.22
2022-07-26T08:22:10.806Z,99098.06
2022-07-26T08:24:39.005Z,99100.28
2022-07-26T08:27:07.129Z,99089.44
2022-07-26T08:29:36.870Z,99086.53
2022-07-26T08:32:05.574Z,99092.31
2022-07-26T08:34:33.743Z,99088.31
2022-07-26T08:37:16.549Z,99087.38
2022-07-26T08:39:46.922Z,99083.50
2022-07-26T08:42:16.259Z,99086.16
2022-07-26T08:44:47.080Z,99088.09
2022-07-26T08:47:16.315Z,99084.44
2022-07-26T08:49:49.684Z,99082.75
2022-07-26T08:52:18.488Z,99075.34
2022-07-26T08:54:47.932Z,99080.09
2022-07-26T08:57:16.689Z,99078.31
2022-07-26T08:59:47.760Z,99079.63
2022-07-26T09:02:16.093Z,99070.53
2022-07-26T09:04:46.456Z,99068.56
2022-07-26T09:07:16.789Z,99069.81
2022-07-26T09:09:59.092Z,99061.28
2022-07-26T09:12:28.917Z,99061.69
2022-07-26T09:14:59.552Z,99056.41
2022-07-26T09:17:40.718Z,99059.22
2022-07-26T09:20:11.060Z,99056.97
2022-07-26T09:22:41.208Z,99055.19
2022-07-26T09:25:22.865Z,99060.19
2022-07-26T09:27:52.361Z,99060.66
2022-07-26T09:30:22.268Z,99047.94
2022-07-26T09:33:05.886Z,99044.88
2022-07-26T09:35:52.122Z,99036.50
2022-07-26T09:38:20.905Z,99031.97
2022-07-26T09:41:03.799Z,99032.78
2022-07-26T09:43:38.700Z,99035.84
2022-07-26T09:46:11.316Z,99036.34
2022-07-26T09:51:40.278Z,99032.22
2022-07-26T09:54:10.092Z,99030.13
2022-07-26T09:56:47.174Z,99024.81
2022-07-26T09:59:17.451Z,99031.25
2022-07-26T10:01:47.619Z,99027.13
2022-07-26T10:04:16.471Z,99016.44
2022-07-26T10:06:45.105Z,99029.75
2022-07-26T10:09:14.611Z,99018.00
2022-07-26T10:11:44.648Z,99024.88
2022-07-26T10:14:38.794Z,99017.25
2022-07-26T10:17:40.901Z,99007.53
2022-07-26T10:20:17.461Z,99003.75
2022-07-26T10:22:49.124Z,98998.41
2022-07-26T10:25:48.931Z,98997.13
2022-07-26T10:28:28.564Z,98992.03
2022-07-26T10:31:31.883Z,98988.41
2022-07-26T10:34:02.738Z,98985.38
2022-07-26T10:36:38.318Z,98983.34
2022-07-26T10:39:13.633Z,98976.69
2022-07-26T10:41:45.479Z,98970.22
2022-07-26T10:44:19.894Z,98976.75
2022-07-26T10:47:18.931Z,98961.06
2022-07-26T10:49:58.981Z,98964.56
2022-07-26T10:52:30.780Z,98954.63
2022-07-26T10:55:18.344Z,98943.59
2022-07-26T10:57:48.972Z,98949.63
2022-07-26T11:00:20.527Z,98943.72
2022-07-26T11:02:57.532Z,98939.53
2022-07-26T11:05:31.220Z,98935.38
2022-07-26T11:08:11.155Z,98936.25
2022-07-26T11:10:40.753Z,98929.34
2022-07-26T11:13:12.403Z,98923.72
2022-07-26T11:15:43.198Z,98926.41
2022-07-26T11:18:32.716Z,98916.47
2022-07-26T11:21:11.348Z,98916.75
2022-07-26T11:23:44.838Z,98908.28
2022-07-26T11:26:15.994Z,98897.19
2022-07-26T11:28:57.825Z,98897.53
2022-07-26T11:31:51.490Z,98914.03
2022-07-26T11:34:20.187Z,98893.66
2022-07-26T11:36:49.269Z,98884.16
2022-07-26T11:39:24.454Z,98883.00
2022-07-26T11:41:58.024Z,98885.97
2022-07-26T11:44:26.478Z,98881.31
2022-07-26T11:46:54.946Z,98876.28
2022-07-26T11:49:52.457Z,98883.31
2022-07-26T11:52:15.807Z,98872.00
2022-07-26T11:54:55.662Z,98870.06
2022-07-26T11:57:30.007Z,98873.34
2022-07-26T12:00:00.892Z,98868.91
2022-07-26T12:02:30.255Z,98866.84
2022-07-26T12:05:15.221Z,98857.34
2022-07-26T12:07:58.944Z,98847.97
2022-07-26T12:10:29.496Z,98850.19
2022-07-26T12:13:14.911Z,98847.84
2022-07-26T12:15:48.690Z,98845.41
2022-07-26T12:18:24.621Z,98844.19
2022-07-26T12:21:05.208Z,98829.97
2022-07-26T12:23:45.926Z,98826.91
2022-07-26T12:26:23.615Z,98825.69
2022-07-26T12:28:52.280Z,98832.47
2022-07-26T12:31:25.440Z,98827.16
2022-07-26T12:33:53.989Z,98822.56
2022-07-26T12:36:27.752Z,98832.69
2022-07-26T12:38:57.895Z,98819.81
2022-07-26T12:41:39.425Z,98821.78
2022-07-26T12:44:11.926Z,98821.03
2022-07-26T12:46:40.443Z,98812.19
2022-07-26T12:49:08.793Z,98806.97
2022-07-26T12:51:37.335Z,98808.84
2022-07-26T12:54:06.693Z,98808.28
2022-07-26T12:56:36.498Z,98801.75
2022-07-26T12:59:04.717Z,98809.25
2022-07-26T13:01:33.722Z,98801.72
2022-07-26T13:04:02.137Z,98806.03
2022-07-26T13:06:30.494Z,98804.69
2022-07-26T13:08:58.552Z,98799.94
2022-07-26T13:11:26.783Z,98797.22
2022-07-26T13:13:57.376Z,98793.13
2022-07-26T13:16:26.248Z,98787.50
2022-07-26T13:18:54.526Z,98790.16
2022-07-26T13:21:22.699Z,98781.03
2022-07-26T13:23:51.164Z,98787.72
2022-07-26T13:26:19.302Z,98779.34
2022-07-26T13:28:49.890Z,98780.59
2022-07-26T13:31:20.588Z,98773.88
2022-07-26T13:33:48.757Z,98778.81
2022-07-26T13:36:17.088Z,98769.63
2022-07-26T13:38:45.230Z,98775.72
2022-07-26T13:41:13.515Z,98775.81
2022-07-26T13:43:41.708Z,98773.53
2022-07-26T13:46:09.845Z,98767.69
2022-07-26T13:48:48.061Z,98764.56
2022-07-26T13:51:20.865Z,98767.69
2022-07-26T13:53:54.771Z,98775.88
2022-07-26T13:56:23.689Z,98766.66
2022-07-26T13:58:51.716Z,98764.16
2022-07-26T14:01:19.976Z,98767.31
2022-07-26T14:04:10.849Z,98765.66
2022-07-26T14:06:40.276Z,98769.13
2022-07-26T14:09:11.000Z,98754.84
2022-07-26T14:11:40.600Z,98765.88
2022-07-26T14:14:09.531Z,98759.06
2022-07-26T14:16:38.920Z,98761.97
2022-07-26T14:19:07.205Z,98760.38
2022-07-26T14:21:45.498Z,98756.81
2022-07-26T14:24:26.502Z,98752.25
2022-07-26T14:26:59.258Z,98753.66
2022-07-26T14:29:29.369Z,98749.38
2022-07-26T14:31:57.893Z,98745.47
2022-07-26T14:34:26.080Z,98745.88
2022-07-26T14:36:55.775Z,98743.75
2022-07-26T14:39:23.819Z,98751.00
2022-07-26T14:41:52.054Z,98740.63
2022-07-26T14:44:20.361Z,98749.28
2022-07-26T14:46:48.518Z,98745.88
2022-07-26T14:49:16.699Z,98736.16
2022-07-26T14:51:45.703Z,98730.88
2022-07-26T14:54:18.218Z,98733.59
2022-07-26T14:56:46.482Z,98740.41
2022-07-26T14:59:14.729Z,98733.16
2022-07-26T15:01:43.285Z,98730.97
2022-07-26T15:04:11.891Z,98721.69
2022-07-26T15:06:40.317Z,98727.09
2022-07-26T15:09:08.376Z,98721.94
2022-07-26T15:11:37.931Z,98715.91
2022-07-26T15:14:06.602Z,98714.41
2022-07-26T15:16:34.894Z,98712.47
2022-07-26T15:19:03.191Z,98709.44
2022-07-26T15:21:31.383Z,98712.31
2022-07-26T15:23:59.521Z,98717.88
2022-07-26T15:26:27.645Z,98709.94
2022-07-26T15:28:57.270Z,98712.47
2022-07-26T15:31:37.395Z,98712.31
2022-07-26T15:34:07.908Z,98714.94
2022-07-26T15:36:36.324Z,98717.88
2022-07-26T15:39:15.945Z,98714.63
2022-07-26T15:41:45.469Z,98712.94
2022-07-26T15:44:17.398Z,98712.38
2022-07-26T15:46:48.023Z,98705.22
2022-07-26T15:49:18.156Z,98706.50
2022-07-26T15:51:46.990Z,98705.97
2022-07-26T15:54:16.408Z,98713.78
2022-07-26T15:56:44.773Z,98705.84
2022-07-26T15:59:14.247Z,98707.38
2022-07-26T16:01:42.611Z,98709.44
2022-07-26T16:04:11.119Z,98708.38
2022-07-26T16:06:40.079Z,98711.69
2022-07-26T16:09:17.712Z,98703.88
2022-07-26T16:11:46.806Z,98699.69
2022-07-26T16:14:16.577Z,98700.84
2022-07-26T16:16:45.164Z,98704.22
2022-07-26T16:19:13.924Z,98706.16
2022-07-26T16:21:42.383Z,98703.34
2022-07-26T16:24:10.596Z,98708.50
2022-07-26T16:26:38.741Z,98703.44
2022-07-26T16:29:07.257Z,98702.97
2022-07-26T16:31:37.559Z,98701.78
2022-07-26T16:34:05.677Z,98702.34
2022-07-26T16:36:33.873Z,98705.78
2022-07-26T16:39:02.173Z,98708.69
2022-07-26T16:41:30.445Z,98699.81
2022-07-26T16:43:58.961Z,98702.22
2022-07-26T16:46:27.932Z,98703.19
2022-07-26T16:48:57.680Z,98702.38
2022-07-26T16:51:26.007Z,98698.34
2022-07-26T16:53:55.281Z,98703.00
2022-07-26T16:56:23.453Z,98703.34
2022-07-26T16:58:51.876Z,98703.97
2022-07-26T17:01:20.062Z,98705.50
2022-07-26T17:03:48.606Z,98701.69
2022-07-26T17:06:18.245Z,98703.59
2022-07-26T17:08:46.689Z,98694.16
2022-07-26T17:11:14.871Z,98692.75
2022-07-26T17:13:43.089Z,98690.28
2022-07-26T17:16:11.319Z,98700.28
2022-07-26T17:18:39.579Z,98701.72
2022-07-26T17:21:07.872Z,98707.09
2022-07-26T17:23:38.659Z,98703.84
2022-07-26T17:26:06.837Z,98707.22
2022-07-26T17:28:34.956Z,98704.53
2022-07-26T17:31:03.152Z,98699.28
2022-07-26T17:33:31.621Z,98696.06
2022-07-26T17:36:03.275Z,98699.75
2022-07-26T17:38:32.888Z,98699.31
2022-07-26T17:41:04.011Z,98698.97
2022-07-26T17:43:36.758Z,98702.84
2022-07-26T17:46:05.517Z,98698.34
2022-07-26T17:48:34.428Z,98701.72
2022-07-26T17:51:02.565Z,98704.63
2022-07-26T17:53:34.166Z,98690.91
2022-07-26T17:56:04.349Z,98692.50
2022-07-26T17:58:33.656Z,98691.25
2022-07-26T18:01:01.802Z,98697.19
2022-07-26T18:03:30.098Z,98699.03
2022-07-26T18:05:58.577Z,98702.41
2022-07-26T18:08:28.133Z,98703.97
2022-07-26T18:10:56.957Z,98710.34
2022-07-26T18:13:27.097Z,98706.81
2022-07-26T18:15:55.762Z,98708.88
2022-07-26T18:18:24.739Z,98711.69
2022-07-26T18:20:53.194Z,98713.75
2022-07-26T18:23:21.714Z,98711.97
2022-07-26T18:25:49.888Z,98719.13
2022-07-26T18:28:18.230Z,98720.41
2022-07-26T18:30:47.770Z,98717.84
2022-07-26T18:33:15.900Z,98723.97
2022-07-26T18:35:44.159Z,98726.75
2022-07-26T18:38:12.859Z,98719.13
2022-07-26T18:40:41.097Z,98728.00
2022-07-26T18:43:09.534Z,98730.56
2022-07-26T18:45:38.450Z,98727.75
2022-07-26T18:48:08.652Z,98741.50
2022-07-26T18:50:40.078Z,98744.53
2022-07-26T18:53:08.651Z,98752.91
2022-07-26T18:55:37.102Z,98750.38
2022-07-26T18:58:07.043Z,98750.63
2022-07-26T19:00:37.069Z,98749.34
2022-07-26T19:03:05.614Z,98751.66
2022-07-26T19:05:35.729Z,98752.63
2022-07-26T19:08:05.666Z,98750.03
2022-07-26T19:10:33.840Z,98755.09
2022-07-26T19:13:02.170Z,98755.81
2022-07-26T19:15:31.393Z,98750.72
2022-07-26T19:17:59.723Z,98755.59
2022-07-26T19:20:27.988Z,98753.56
2022-07-26T19:22:57.939Z,98752.53
2022-07-26T19:25:26.348Z,98755.81
2022-07-26T19:27:55.032Z,98755.50
2022-07-26T19:30:23.704Z,98754.69
2022-07-26T19:32:51.984Z,98758.94
2022-07-26T19:35:20.949Z,98756.13
2022-07-26T19:37:49.083Z,98753.56
2022-07-26T19:40:18.724Z,98765.19
2022-07-26T19:42:47.761Z,98763.41
2022-07-26T19:45:16.059Z,98764.69
2022-07-26T19:47:44.622Z,98769.19
2022-07-26T19:50:13.104Z,98769.66
2022-07-26T19:52:41.495Z,98781.25
2022-07-26T19:55:10.931Z,98768.22
2022-07-26T19:57:40.553Z,98770.22
2022-07-26T20:00:10.565Z,98770.91
2022-07-26T20:02:41.050Z,98767.31
2022-07-26T20:05:10.696Z,98764.94
2022-07-26T20:07:39.312Z,98754.53
2022-07-26T20:10:11.759Z,98768.44
2022-07-26T20:12:42.617Z,98773.72
2022-07-26T20:15:11.993Z,98777.16
2022-07-26T20:17:41.525Z,98786.22
2022-07-26T20:20:11.957Z,98779.53
2022-07-26T20:22:40.573Z,98780.53
2022-07-26T20:25:09.733Z,98788.06
2022-07-26T20:27:38.005Z,98783.47
2022-07-26T20:30:09.407Z,98782.16
2022-07-26T20:32:37.587Z,98791.78
2022-07-26T20:35:06.283Z,98785.44
2022-07-26T20:37:34.525Z,98783.91
2022-07-26T20:40:02.868Z,98784.59
2022-07-26T20:42:31.792Z,98785.59
2022-07-26T20:45:01.223Z,98790.34
2022-07-26T20:47:31.182Z,98790.75
2022-07-26T20:50:03.179Z,98792.22
2022-07-26T20:52:32.463Z,98795.13
2022-07-26T20:55:00.678Z,98797.91
2022-07-26T20:57:28.934Z,98797.13
2022-07-26T20:59:57.197Z,98799.44
2022-07-26T21:02:25.521Z,98802.28
2022-07-26T21:04:55.301Z,98807.84
2022-07-26T21:07:24.311Z,98811.34
2022-07-26T21:10:13.080Z,98803.38
2022-07-26T21:12:41.239Z,98806.09
2022-07-26T21:15:10.300Z,98811.41
2022-07-26T21:17:39.703Z,98806.81
2022-07-26T21:20:10.079Z,98815.09
2022-07-26T21:22:38.468Z,98809.69
2022-07-26T21:25:08.097Z,98808.09
2022-07-26T21:27:36.316Z,98812.03
2022-07-26T21:30:05.121Z,98807.84
2022-07-26T21:32:33.282Z,98816.69
2022-07-26T21:35:01.854Z,98808.44
2022-07-26T21:37:33.243Z,98820.72
2022-07-26T21:40:01.536Z,98809.47
2022-07-26T21:42:29.805Z,98809.22
2022-07-26T21:44:57.901Z,98811.16
2022-07-26T21:47:25.963Z,98811.03
2022-07-26T21:49:54.046Z,98809.91
2022-07-26T21:52:22.186Z,98810.47
2022-07-26T21:54:51.737Z,98811.44
2022-07-26T21:57:20.174Z,98808.06
2022-07-26T21:59:49.548Z,98808.44
2022-07-26T22:02:19.969Z,98816.66
2022-07-26T22:04:50.026Z,98804.00
2022-07-26T22:07:18.222Z,98803.34
2022-07-26T22:09:46.486Z,98809.84
2022-07-26T22:12:17.565Z,98803.69
2022-07-26T22:14:45.974Z,98809.16
2022-07-26T22:17:15.404Z,98812.97
2022-07-26T22:19:43.555Z,98810.66
2022-07-26T22:22:11.814Z,98819.66
2022-07-26T22:24:39.922Z,98815.66
2022-07-26T22:27:08.049Z,98816.00
2022-07-26T22:29:38.833Z,98816.06
2022-07-26T22:32:08.182Z,98814.53
2022-07-26T22:34:36.533Z,98815.47
2022-07-26T22:37:04.720Z,98812.09
2022-07-26T22:39:32.869Z,98812.63
2022-07-26T22:42:15.704Z,98814.50
2022-07-26T22:44:45.811Z,98822.72
2022-07-26T22:47:13.922Z,98820.75
2022-07-26T22:49:42.062Z,98821.88
2022-07-26T22:52:10.325Z,98828.09
2022-07-26T22:54:38.496Z,98822.44
2022-07-26T22:57:06.663Z,98830.75
2022-07-26T22:59:34.873Z,98830.59
2022-07-26T23:02:04.593Z,98826.00
2022-07-26T23:04:32.729Z,98833.41
2022-07-26T23:07:02.484Z,98836.50
2022-07-26T23:09:32.831Z,98843.91
2022-07-26T23:12:00.970Z,98839.16
2022-07-26T23:14:29.245Z,98839.31
2022-07-26T23:16:57.369Z,98837.31
2022-07-26T23:19:27.344Z,98837.75
2022-07-26T23:21:55.546Z,98846.97
2022-07-26T23:24:23.881Z,98847.31
2022-07-26T23:26:51.951Z,98855.81
2022-07-26T23:29:20.108Z,98853.81
2022-07-26T23:31:48.298Z,98860.59
2022-07-26T23:34:16.503Z,98846.75
2022-07-26T23:36:46.373Z,98858.78
2022-07-26T23:39:14.977Z,98853.84
2022-07-26T23:41:43.257Z,98856.47
2022-07-26T23:44:11.452Z,98849.53
2022-07-26T23:46:40.263Z,98857.22
2022-07-26T23:49:08.767Z,98855.03
2022-07-26T23:51:39.191Z,98859.97
2022-07-26T23:54:08.760Z,98860.59
2022-07-26T23:56:36.872Z,98849.50
2022-07-26T23:59:04.966Z,98854.59
